OINR  Ramsar Airport

Add Bookmark

Iran

Status IATA
Operational RZR
Latitude Longitude
36° 54' 35" N 50° 40' 46" E
36.909901 50.679600
Local (DST + 5) UTC (GMT + 4)
Jul 28, 2014 04:51 Jul 28, 2014 12:21
Sunrise-Sunset Local UTC
Begin Civil Twilight 05:39 01:09
Sunrise 06:08 01:38
Sunset 08:19 15:49
End Civil Twilight 08:48 16:18

Current Weather

METAR Observed VFR
OINR 281200Z 35018KT 9999 FEW015 FEW025CB BKN090 28/21 Q1009 Mon, Jul 28, 2014 @ 12:00 UTC
(21 Minutes ago)
Visual Flight Rules

Decoded METAR

Wind Visibility Clouds Conditions
350° at 18 knots (33 kph) 10 km or more
  • Few at 1,500' AGL
  • Few at 2,500' AGL
  • Broken at 9,000' AGL
  • No significant weather
Temperatures Readings Precipitation
Current Temp 28°C (82°F)
Dewpoint 21°C (70°F)
Heat Index 30°C (86°F)
Humidity 66%
Altimeter 29.79"Hg
Sea Level Pressure 1009mb
None Recorded

Additional weather within a 92.6km radius of OINR

Map ICAO Location
OINN 75km E (111°)

24 Hour Weather History

Loading
-

24 Hour Weather Graphs

Loading
-

CheckWX.com is intended as a tool to help pilots better visualize weather data. It is not intended as a substitute for an official weather briefing obtained from a Flight Service Station. CheckWX.com does not meet the FAA requirements for an official pre-flight weather briefing. Therefore, it's important that pilots still call and obtain an official FSS pre-flight weather briefing.